sensor_id;sensor_type;location;lat;lon;timestamp;temperature;humidity
52731;DHT22;38624;53.242;6.974;2023-02-18T00:00:16;6.50;99.90
52731;DHT22;38624;53.242;6.974;2023-02-18T00:02:44;6.40;99.90
52731;DHT22;38624;53.242;6.974;2023-02-18T00:05:10;6.40;99.90
52731;DHT22;38624;53.242;6.974;2023-02-18T00:07:37;6.40;99.90
52731;DHT22;38624;53.242;6.974;2023-02-18T00:10:05;6.40;99.90
52731;DHT22;38624;53.242;6.974;2023-02-18T00:12:31;6.40;99.90
52731;DHT22;38624;53.242;6.974;2023-02-18T00:14:57;6.40;99.90
52731;DHT22;38624;53.242;6.974;2023-02-18T00:17:23;6.40;99.90
52731;DHT22;38624;53.242;6.974;2023-02-18T00:19:49;6.50;99.90
52731;DHT22;38624;53.242;6.974;2023-02-18T00:22:14;6.50;99.90
52731;DHT22;38624;53.242;6.974;2023-02-18T00:24:40;6.50;99.90
52731;DHT22;38624;53.242;6.974;2023-02-18T00:27:06;6.60;99.90
52731;DHT22;38624;53.242;6.974;2023-02-18T00:29:32;6.50;99.90
52731;DHT22;38624;53.242;6.974;2023-02-18T00:31:58;6.60;99.90
52731;DHT22;38624;53.242;6.974;2023-02-18T00:34:24;6.60;99.90
52731;DHT22;38624;53.242;6.974;2023-02-18T00:36:49;6.60;99.90
52731;DHT22;38624;53.242;6.974;2023-02-18T00:39:15;6.60;99.90
52731;DHT22;38624;53.242;6.974;2023-02-18T00:41:41;6.60;99.90
52731;DHT22;38624;53.242;6.974;2023-02-18T00:44:07;6.60;99.90
52731;DHT22;38624;53.242;6.974;2023-02-18T00:46:33;6.60;99.90
52731;DHT22;38624;53.242;6.974;2023-02-18T00:48:59;6.60;99.90
52731;DHT22;38624;53.242;6.974;2023-02-18T00:51:24;6.50;99.90
52731;DHT22;38624;53.242;6.974;2023-02-18T00:53:50;6.50;99.90
52731;DHT22;38624;53.242;6.974;2023-02-18T00:56:16;6.90;99.90
52731;DHT22;38624;53.242;6.974;2023-02-18T00:58:42;6.40;99.90
52731;DHT22;38624;53.242;6.974;2023-02-18T01:01:09;6.30;99.90
52731;DHT22;38624;53.242;6.974;2023-02-18T01:03:36;6.30;99.90
52731;DHT22;38624;53.242;6.974;2023-02-18T01:06:03;6.20;99.90
52731;DHT22;38624;53.242;6.974;2023-02-18T01:08:29;6.20;99.90
52731;DHT22;38624;53.242;6.974;2023-02-18T01:10:56;5.90;99.90
52731;DHT22;38624;53.242;6.974;2023-02-18T01:13:23;6.70;99.90
52731;DHT22;38624;53.242;6.974;2023-02-18T01:15:49;6.10;99.90
52731;DHT22;38624;53.242;6.974;2023-02-18T01:18:15;6.00;99.90
52731;DHT22;38624;53.242;6.974;2023-02-18T01:20:42;6.00;99.90
52731;DHT22;38624;53.242;6.974;2023-02-18T01:23:08;6.20;99.90
52731;DHT22;38624;53.242;6.974;2023-02-18T01:25:34;6.00;99.90
52731;DHT22;38624;53.242;6.974;2023-02-18T01:28:02;6.00;99.90
52731;DHT22;38624;53.242;6.974;2023-02-18T01:30:27;5.90;99.90
52731;DHT22;38624;53.242;6.974;2023-02-18T01:32:55;6.10;99.90
52731;DHT22;38624;53.242;6.974;2023-02-18T01:35:21;6.00;99.90
52731;DHT22;38624;53.242;6.974;2023-02-18T01:37:47;6.00;99.90
52731;DHT22;38624;53.242;6.974;2023-02-18T01:40:16;6.00;99.90
52731;DHT22;38624;53.242;6.974;2023-02-18T01:42:42;6.10;99.90
52731;DHT22;38624;53.242;6.974;2023-02-18T01:48:14;6.20;99.90
52731;DHT22;38624;53.242;6.974;2023-02-18T01:50:48;6.30;99.90
52731;DHT22;38624;53.242;6.974;2023-02-18T01:53:19;6.30;99.90
52731;DHT22;38624;53.242;6.974;2023-02-18T01:55:48;6.30;99.90
52731;DHT22;38624;53.242;6.974;2023-02-18T01:58:14;6.40;99.90
52731;DHT22;38624;53.242;6.974;2023-02-18T02:00:40;6.40;99.90
52731;DHT22;38624;53.242;6.974;2023-02-18T02:03:06;6.50;99.90
52731;DHT22;38624;53.242;6.974;2023-02-18T02:05:33;6.50;99.90
52731;DHT22;38624;53.242;6.974;2023-02-18T02:08:00;6.60;99.90
52731;DHT22;38624;53.242;6.974;2023-02-18T02:11:01;6.70;99.90
52731;DHT22;38624;53.242;6.974;2023-02-18T02:14:06;6.60;99.90
52731;DHT22;38624;53.242;6.974;2023-02-18T02:16:54;6.60;99.90
52731;DHT22;38624;53.242;6.974;2023-02-18T02:33:51;6.70;99.90
52731;DHT22;38624;53.242;6.974;2023-02-18T02:36:49;6.70;99.90
52731;DHT22;38624;53.242;6.974;2023-02-18T02:39:30;6.70;99.90
52731;DHT22;38624;53.242;6.974;2023-02-18T02:42:02;6.70;99.90
52731;DHT22;38624;53.242;6.974;2023-02-18T02:50:12;6.80;99.90
52731;DHT22;38624;53.242;6.974;2023-02-18T02:52:50;6.80;99.90
52731;DHT22;38624;53.242;6.974;2023-02-18T02:55:16;6.80;99.90
52731;DHT22;38624;53.242;6.974;2023-02-18T02:57:49;6.80;99.90
52731;DHT22;38624;53.242;6.974;2023-02-18T03:00:17;6.80;99.90
52731;DHT22;38624;53.242;6.974;2023-02-18T03:11:07;6.90;99.90
52731;DHT22;38624;53.242;6.974;2023-02-18T03:16:25;6.90;99.90
52731;DHT22;38624;53.242;6.974;2023-02-18T03:21:56;6.90;99.90
52731;DHT22;38624;53.242;6.974;2023-02-18T03:24:33;6.90;99.90
52731;DHT22;38624;53.242;6.974;2023-02-18T03:27:05;7.20;99.90
52731;DHT22;38624;53.242;6.974;2023-02-18T03:29:32;7.00;99.90
52731;DHT22;38624;53.242;6.974;2023-02-18T03:32:02;7.00;99.90
52731;DHT22;38624;53.242;6.974;2023-02-18T03:34:31;7.00;99.90
52731;DHT22;38624;53.242;6.974;2023-02-18T03:36:59;7.00;99.90
52731;DHT22;38624;53.242;6.974;2023-02-18T03:39:28;7.10;99.90
52731;DHT22;38624;53.242;6.974;2023-02-18T03:41:54;7.00;99.90
52731;DHT22;38624;53.242;6.974;2023-02-18T03:44:20;7.00;99.90
52731;DHT22;38624;53.242;6.974;2023-02-18T03:46:48;7.00;99.90
52731;DHT22;38624;53.242;6.974;2023-02-18T03:49:14;7.00;99.90
52731;DHT22;38624;53.242;6.974;2023-02-18T03:51:41;7.10;99.90
52731;DHT22;38624;53.242;6.974;2023-02-18T03:54:08;7.10;99.90
52731;DHT22;38624;53.242;6.974;2023-02-18T03:56:35;7.10;99.90
52731;DHT22;38624;53.242;6.974;2023-02-18T03:59:01;7.10;99.90
52731;DHT22;38624;53.242;6.974;2023-02-18T04:01:26;7.10;99.90
52731;DHT22;38624;53.242;6.974;2023-02-18T04:03:52;7.10;99.90
52731;DHT22;38624;53.242;6.974;2023-02-18T04:06:20;7.10;99.90
52731;DHT22;38624;53.242;6.974;2023-02-18T04:08:47;7.20;99.90
52731;DHT22;38624;53.242;6.974;2023-02-18T04:11:12;7.20;99.90
52731;DHT22;38624;53.242;6.974;2023-02-18T04:13:38;7.20;99.90
52731;DHT22;38624;53.242;6.974;2023-02-18T04:16:04;7.20;99.90
52731;DHT22;38624;53.242;6.974;2023-02-18T04:18:30;7.20;99.90
52731;DHT22;38624;53.242;6.974;2023-02-18T04:20:55;7.10;99.90
52731;DHT22;38624;53.242;6.974;2023-02-18T04:23:21;7.30;99.90
52731;DHT22;38624;53.242;6.974;2023-02-18T04:25:47;7.40;99.90
52731;DHT22;38624;53.242;6.974;2023-02-18T04:28:13;7.40;99.90
52731;DHT22;38624;53.242;6.974;2023-02-18T04:30:40;7.20;99.90
52731;DHT22;38624;53.242;6.974;2023-02-18T04:33:05;7.20;99.90
52731;DHT22;38624;53.242;6.974;2023-02-18T04:35:31;7.30;99.90
52731;DHT22;38624;53.242;6.974;2023-02-18T04:37:57;7.30;99.90
52731;DHT22;38624;53.242;6.974;2023-02-18T04:40:22;7.30;99.90
52731;DHT22;38624;53.242;6.974;2023-02-18T04:42:51;7.30;99.90
52731;DHT22;38624;53.242;6.974;2023-02-18T04:45:16;7.30;99.90
52731;DHT22;38624;53.242;6.974;2023-02-18T04:47:42;7.20;99.90
52731;DHT22;38624;53.242;6.974;2023-02-18T04:50:08;7.20;99.90
52731;DHT22;38624;53.242;6.974;2023-02-18T04:52:34;7.20;99.90
52731;DHT22;38624;53.242;6.974;2023-02-18T04:55:00;7.20;99.90
52731;DHT22;38624;53.242;6.974;2023-02-18T04:57:26;7.20;99.90
52731;DHT22;38624;53.242;6.974;2023-02-18T04:59:51;7.10;99.90
52731;DHT22;38624;53.242;6.974;2023-02-18T05:02:17;7.10;99.90
52731;DHT22;38624;53.242;6.974;2023-02-18T05:04:43;7.10;99.90
52731;DHT22;38624;53.242;6.974;2023-02-18T05:07:09;7.10;99.90
52731;DHT22;38624;53.242;6.974;2023-02-18T05:09:34;7.10;99.90
52731;DHT22;38624;53.242;6.974;2023-02-18T05:12:00;7.00;99.90
52731;DHT22;38624;53.242;6.974;2023-02-18T05:14:26;7.00;99.90
52731;DHT22;38624;53.242;6.974;2023-02-18T05:16:51;7.00;99.90
52731;DHT22;38624;53.242;6.974;2023-02-18T05:19:17;7.00;99.90
52731;DHT22;38624;53.242;6.974;2023-02-18T05:21:43;7.10;99.90
52731;DHT22;38624;53.242;6.974;2023-02-18T05:24:09;7.00;99.90
52731;DHT22;38624;53.242;6.974;2023-02-18T05:26:35;7.00;99.90
52731;DHT22;38624;53.242;6.974;2023-02-18T05:29:00;7.10;99.90
52731;DHT22;38624;53.242;6.974;2023-02-18T05:31:26;7.10;99.90
52731;DHT22;38624;53.242;6.974;2023-02-18T05:33:52;7.00;99.90
52731;DHT22;38624;53.242;6.974;2023-02-18T05:36:18;7.00;99.90
52731;DHT22;38624;53.242;6.974;2023-02-18T05:38:43;7.10;99.90
52731;DHT22;38624;53.242;6.974;2023-02-18T05:41:09;7.10;99.90
52731;DHT22;38624;53.242;6.974;2023-02-18T05:43:35;7.10;99.90
52731;DHT22;38624;53.242;6.974;2023-02-18T05:46:21;7.10;99.90
52731;DHT22;38624;53.242;6.974;2023-02-18T05:48:46;7.20;99.90
52731;DHT22;38624;53.242;6.974;2023-02-18T05:51:12;7.20;99.90
52731;DHT22;38624;53.242;6.974;2023-02-18T05:53:38;7.20;99.90
52731;DHT22;38624;53.242;6.974;2023-02-18T05:56:04;7.20;99.90
52731;DHT22;38624;53.242;6.974;2023-02-18T05:58:29;7.30;99.90
52731;DHT22;38624;53.242;6.974;2023-02-18T06:00:55;7.40;99.90
52731;DHT22;38624;53.242;6.974;2023-02-18T06:03:21;7.40;99.90
52731;DHT22;38624;53.242;6.974;2023-02-18T06:05:50;7.40;99.90
52731;DHT22;38624;53.242;6.974;2023-02-18T06:08:16;7.50;99.90
52731;DHT22;38624;53.242;6.974;2023-02-18T06:10:44;7.50;99.90
52731;DHT22;38624;53.242;6.974;2023-02-18T06:13:10;7.50;99.90
52731;DHT22;38624;53.242;6.974;2023-02-18T06:15:37;7.60;99.90
52731;DHT22;38624;53.242;6.974;2023-02-18T06:18:03;7.70;99.90
52731;DHT22;38624;53.242;6.974;2023-02-18T06:20:29;7.60;99.90
52731;DHT22;38624;53.242;6.974;2023-02-18T06:22:54;7.70;99.90
52731;DHT22;38624;53.242;6.974;2023-02-18T06:25:20;7.80;99.90
52731;DHT22;38624;53.242;6.974;2023-02-18T06:27:46;7.90;99.90
52731;DHT22;38624;53.242;6.974;2023-02-18T06:30:12;7.90;99.90
52731;DHT22;38624;53.242;6.974;2023-02-18T06:32:38;7.90;99.90
52731;DHT22;38624;53.242;6.974;2023-02-18T06:35:03;7.90;99.90
52731;DHT22;38624;53.242;6.974;2023-02-18T06:37:29;8.00;99.90
52731;DHT22;38624;53.242;6.974;2023-02-18T06:39:55;8.00;99.90
52731;DHT22;38624;53.242;6.974;2023-02-18T06:42:20;8.00;99.90
52731;DHT22;38624;53.242;6.974;2023-02-18T06:44:46;8.00;99.90
52731;DHT22;38624;53.242;6.974;2023-02-18T06:47:12;8.00;99.90
52731;DHT22;38624;53.242;6.974;2023-02-18T06:49:38;8.00;99.90
52731;DHT22;38624;53.242;6.974;2023-02-18T06:52:04;8.00;99.90
52731;DHT22;38624;53.242;6.974;2023-02-18T06:54:30;8.00;99.90
52731;DHT22;38624;53.242;6.974;2023-02-18T06:56:56;8.00;99.90
52731;DHT22;38624;53.242;6.974;2023-02-18T06:59:22;8.00;99.90
52731;DHT22;38624;53.242;6.974;2023-02-18T07:01:47;8.10;99.90
52731;DHT22;38624;53.242;6.974;2023-02-18T07:04:13;8.40;99.90
52731;DHT22;38624;53.242;6.974;2023-02-18T07:06:39;8.20;99.90
52731;DHT22;38624;53.242;6.974;2023-02-18T07:09:05;8.40;99.90
52731;DHT22;38624;53.242;6.974;2023-02-18T07:11:31;8.30;99.90
52731;DHT22;38624;53.242;6.974;2023-02-18T07:13:56;8.30;99.90
52731;DHT22;38624;53.242;6.974;2023-02-18T07:16:22;8.30;99.90
52731;DHT22;38624;53.242;6.974;2023-02-18T07:18:47;8.40;99.90
52731;DHT22;38624;53.242;6.974;2023-02-18T07:21:13;8.50;99.90
52731;DHT22;38624;53.242;6.974;2023-02-18T07:23:39;8.50;99.90
52731;DHT22;38624;53.242;6.974;2023-02-18T07:26:07;8.50;99.90
52731;DHT22;38624;53.242;6.974;2023-02-18T07:28:33;8.60;99.90
52731;DHT22;38624;53.242;6.974;2023-02-18T07:30:59;8.70;99.90
52731;DHT22;38624;53.242;6.974;2023-02-18T07:33:24;8.70;99.90
52731;DHT22;38624;53.242;6.974;2023-02-18T07:35:55;8.70;99.90
52731;DHT22;38624;53.242;6.974;2023-02-18T07:38:22;8.80;99.90
52731;DHT22;38624;53.242;6.974;2023-02-18T07:40:48;8.80;99.90
52731;DHT22;38624;53.242;6.974;2023-02-18T07:43:14;8.80;99.90
52731;DHT22;38624;53.242;6.974;2023-02-18T07:45:39;8.90;99.90
52731;DHT22;38624;53.242;6.974;2023-02-18T07:48:05;8.90;99.90
52731;DHT22;38624;53.242;6.974;2023-02-18T07:50:31;8.90;99.90
52731;DHT22;38624;53.242;6.974;2023-02-18T07:53:02;8.90;99.90
52731;DHT22;38624;53.242;6.974;2023-02-18T07:55:28;9.00;99.90
52731;DHT22;38624;53.242;6.974;2023-02-18T07:58:25;9.00;99.90
52731;DHT22;38624;53.242;6.974;2023-02-18T08:00:51;9.00;99.90
52731;DHT22;38624;53.242;6.974;2023-02-18T08:03:18;9.00;99.90
52731;DHT22;38624;53.242;6.974;2023-02-18T08:05:47;9.00;99.90
52731;DHT22;38624;53.242;6.974;2023-02-18T08:08:14;9.00;99.90
52731;DHT22;38624;53.242;6.974;2023-02-18T08:10:41;9.10;99.90
52731;DHT22;38624;53.242;6.974;2023-02-18T08:13:07;9.10;99.90
52731;DHT22;38624;53.242;6.974;2023-02-18T08:15:33;9.10;99.90
52731;DHT22;38624;53.242;6.974;2023-02-18T08:17:58;9.10;99.90
52731;DHT22;38624;53.242;6.974;2023-02-18T08:20:25;9.10;99.90
52731;DHT22;38624;53.242;6.974;2023-02-18T08:22:50;9.10;99.90
52731;DHT22;38624;53.242;6.974;2023-02-18T08:25:16;9.10;99.90
52731;DHT22;38624;53.242;6.974;2023-02-18T08:27:42;9.10;99.90
52731;DHT22;38624;53.242;6.974;2023-02-18T08:30:08;9.00;99.90
52731;DHT22;38624;53.242;6.974;2023-02-18T08:32:35;9.10;99.90
52731;DHT22;38624;53.242;6.974;2023-02-18T08:35:00;9.00;99.90
52731;DHT22;38624;53.242;6.974;2023-02-18T08:37:27;9.00;99.90
52731;DHT22;38624;53.242;6.974;2023-02-18T08:39:53;9.00;99.90
52731;DHT22;38624;53.242;6.974;2023-02-18T08:42:18;9.00;99.90
52731;DHT22;38624;53.242;6.974;2023-02-18T08:44:44;8.90;99.90
52731;DHT22;38624;53.242;6.974;2023-02-18T08:47:10;8.90;99.90
52731;DHT22;38624;53.242;6.974;2023-02-18T08:49:36;8.80;99.90
52731;DHT22;38624;53.242;6.974;2023-02-18T08:52:02;8.80;99.90
52731;DHT22;38624;53.242;6.974;2023-02-18T08:54:28;8.80;99.90
52731;DHT22;38624;53.242;6.974;2023-02-18T08:56:55;8.80;99.90
52731;DHT22;38624;53.242;6.974;2023-02-18T08:59:23;8.80;99.90
52731;DHT22;38624;53.242;6.974;2023-02-18T09:01:49;8.80;99.90
52731;DHT22;38624;53.242;6.974;2023-02-18T09:04:14;8.80;99.90
52731;DHT22;38624;53.242;6.974;2023-02-18T09:06:40;8.80;99.90
52731;DHT22;38624;53.242;6.974;2023-02-18T09:09:06;8.80;99.90
52731;DHT22;38624;53.242;6.974;2023-02-18T09:11:32;8.80;99.90
52731;DHT22;38624;53.242;6.974;2023-02-18T09:13:58;8.70;99.90
52731;DHT22;38624;53.242;6.974;2023-02-18T09:16:24;8.80;99.90
52731;DHT22;38624;53.242;6.974;2023-02-18T09:18:49;8.70;99.90
52731;DHT22;38624;53.242;6.974;2023-02-18T09:21:16;8.80;99.90
52731;DHT22;38624;53.242;6.974;2023-02-18T09:23:43;8.80;99.90
52731;DHT22;38624;53.242;6.974;2023-02-18T09:26:13;8.80;99.90
52731;DHT22;38624;53.242;6.974;2023-02-18T09:28:40;8.70;99.90
52731;DHT22;38624;53.242;6.974;2023-02-18T09:31:12;8.80;99.90
52731;DHT22;38624;53.242;6.974;2023-02-18T09:33:40;8.70;99.90
52731;DHT22;38624;53.242;6.974;2023-02-18T09:36:07;8.70;99.90
52731;DHT22;38624;53.242;6.974;2023-02-18T09:38:33;8.70;99.90
52731;DHT22;38624;53.242;6.974;2023-02-18T09:41:01;8.70;99.90
52731;DHT22;38624;53.242;6.974;2023-02-18T09:43:42;8.70;99.90
52731;DHT22;38624;53.242;6.974;2023-02-18T09:46:31;8.70;99.90
52731;DHT22;38624;53.242;6.974;2023-02-18T09:49:03;8.70;99.90
52731;DHT22;38624;53.242;6.974;2023-02-18T09:51:31;8.60;99.90
52731;DHT22;38624;53.242;6.974;2023-02-18T09:53:57;8.70;99.90
52731;DHT22;38624;53.242;6.974;2023-02-18T09:56:31;8.70;99.90
52731;DHT22;38624;53.242;6.974;2023-02-18T09:58:58;8.70;99.90
52731;DHT22;38624;53.242;6.974;2023-02-18T10:01:33;8.70;99.90
52731;DHT22;38624;53.242;6.974;2023-02-18T10:07:00;8.70;99.90
52731;DHT22;38624;53.242;6.974;2023-02-18T10:09:34;8.80;99.90
52731;DHT22;38624;53.242;6.974;2023-02-18T10:12:12;8.80;99.90
52731;DHT22;38624;53.242;6.974;2023-02-18T10:14:40;8.90;99.90
52731;DHT22;38624;53.242;6.974;2023-02-18T10:17:06;8.90;99.90
52731;DHT22;38624;53.242;6.974;2023-02-18T10:19:37;8.90;99.90
52731;DHT22;38624;53.242;6.974;2023-02-18T10:22:07;9.00;99.90
52731;DHT22;38624;53.242;6.974;2023-02-18T10:24:38;8.90;99.90
52731;DHT22;38624;53.242;6.974;2023-02-18T10:27:07;8.90;99.90
52731;DHT22;38624;53.242;6.974;2023-02-18T10:29:34;8.90;99.90
52731;DHT22;38624;53.242;6.974;2023-02-18T10:40:11;8.90;99.90
52731;DHT22;38624;53.242;6.974;2023-02-18T10:50:51;8.80;99.90
52731;DHT22;38624;53.242;6.974;2023-02-18T10:53:30;8.80;99.90
52731;DHT22;38624;53.242;6.974;2023-02-18T10:55:57;8.90;99.90
52731;DHT22;38624;53.242;6.974;2023-02-18T10:58:45;8.90;99.90
52731;DHT22;38624;53.242;6.974;2023-02-18T11:01:16;8.90;99.90
52731;DHT22;38624;53.242;6.974;2023-02-18T11:03:51;9.00;99.90
52731;DHT22;38624;53.242;6.974;2023-02-18T11:06:37;9.00;99.90
52731;DHT22;38624;53.242;6.974;2023-02-18T11:09:03;9.00;99.90
52731;DHT22;38624;53.242;6.974;2023-02-18T11:11:35;9.00;99.90
52731;DHT22;38624;53.242;6.974;2023-02-18T11:14:04;9.10;99.90
52731;DHT22;38624;53.242;6.974;2023-02-18T11:16:40;9.10;99.90
52731;DHT22;38624;53.242;6.974;2023-02-18T11:19:33;9.20;99.90
52731;DHT22;38624;53.242;6.974;2023-02-18T11:22:17;9.20;99.90
52731;DHT22;38624;53.242;6.974;2023-02-18T11:24:43;9.20;99.90
52731;DHT22;38624;53.242;6.974;2023-02-18T11:27:37;9.30;99.90
52731;DHT22;38624;53.242;6.974;2023-02-18T11:30:20;9.30;99.90
52731;DHT22;38624;53.242;6.974;2023-02-18T11:32:50;9.40;99.90
52731;DHT22;38624;53.242;6.974;2023-02-18T11:35:18;9.40;99.90
52731;DHT22;38624;53.242;6.974;2023-02-18T11:37:44;9.50;99.90
52731;DHT22;38624;53.242;6.974;2023-02-18T11:40:31;9.50;99.90
52731;DHT22;38624;53.242;6.974;2023-02-18T11:43:08;9.60;99.90
52731;DHT22;38624;53.242;6.974;2023-02-18T11:45:36;9.70;99.90
52731;DHT22;38624;53.242;6.974;2023-02-18T11:48:16;9.80;99.90
52731;DHT22;38624;53.242;6.974;2023-02-18T11:50:43;9.80;99.90
52731;DHT22;38624;53.242;6.974;2023-02-18T11:53:30;9.90;99.90
52731;DHT22;38624;53.242;6.974;2023-02-18T11:56:03;9.90;99.90
52731;DHT22;38624;53.242;6.974;2023-02-18T11:58:36;10.00;99.90
52731;DHT22;38624;53.242;6.974;2023-02-18T12:01:04;10.00;99.90
52731;DHT22;38624;53.242;6.974;2023-02-18T12:03:38;10.00;99.90
52731;DHT22;38624;53.242;6.974;2023-02-18T12:06:23;9.90;99.90
52731;DHT22;38624;53.242;6.974;2023-02-18T12:08:59;10.00;99.90
52731;DHT22;38624;53.242;6.974;2023-02-18T12:11:42;10.00;99.90
52731;DHT22;38624;53.242;6.974;2023-02-18T12:14:15;10.10;99.90
52731;DHT22;38624;53.242;6.974;2023-02-18T12:22:41;10.20;99.90
52731;DHT22;38624;53.242;6.974;2023-02-18T12:27:52;10.40;99.90
52731;DHT22;38624;53.242;6.974;2023-02-18T12:33:12;10.30;99.90
52731;DHT22;38624;53.242;6.974;2023-02-18T12:47:04;10.70;99.90
52731;DHT22;38624;53.242;6.974;2023-02-18T13:00:50;10.60;99.90
52731;DHT22;38624;53.242;6.974;2023-02-18T13:14:52;11.20;99.90
52731;DHT22;38624;53.242;6.974;2023-02-18T13:17:25;11.30;99.90
52731;DHT22;38624;53.242;6.974;2023-02-18T13:19:56;11.30;99.90
52731;DHT22;38624;53.242;6.974;2023-02-18T13:22:25;11.40;99.90
52731;DHT22;38624;53.242;6.974;2023-02-18T13:24:53;11.30;99.90
52731;DHT22;38624;53.242;6.974;2023-02-18T13:27:34;11.20;99.90
52731;DHT22;38624;53.242;6.974;2023-02-18T13:33:08;11.10;99.90
52731;DHT22;38624;53.242;6.974;2023-02-18T13:35:53;11.10;99.90
52731;DHT22;38624;53.242;6.974;2023-02-18T13:38:50;11.00;99.90
52731;DHT22;38624;53.242;6.974;2023-02-18T13:41:19;11.00;99.90
52731;DHT22;38624;53.242;6.974;2023-02-18T13:43:45;11.00;99.90
52731;DHT22;38624;53.242;6.974;2023-02-18T13:46:16;11.00;99.90
52731;DHT22;38624;53.242;6.974;2023-02-18T13:51:26;11.10;99.90
52731;DHT22;38624;53.242;6.974;2023-02-18T13:56:38;11.30;99.90
52731;DHT22;38624;53.242;6.974;2023-02-18T13:59:44;11.40;99.90
52731;DHT22;38624;53.242;6.974;2023-02-18T14:28:51;10.30;99.90
52731;DHT22;38624;53.242;6.974;2023-02-18T14:31:29;10.20;99.90
52731;DHT22;38624;53.242;6.974;2023-02-18T14:36:46;10.10;99.90
52731;DHT22;38624;53.242;6.974;2023-02-18T14:39:56;10.10;99.90
52731;DHT22;38624;53.242;6.974;2023-02-18T14:42:42;10.10;99.90
52731;DHT22;38624;53.242;6.974;2023-02-18T14:45:38;10.10;99.90
52731;DHT22;38624;53.242;6.974;2023-02-18T14:50:56;10.10;99.90
52731;DHT22;38624;53.242;6.974;2023-02-18T14:53:25;10.00;99.90
52731;DHT22;38624;53.242;6.974;2023-02-18T14:56:03;10.00;99.90
52731;DHT22;38624;53.242;6.974;2023-02-18T14:58:35;9.90;99.90
52731;DHT22;38624;53.242;6.974;2023-02-18T15:01:19;9.90;99.90
52731;DHT22;38624;53.242;6.974;2023-02-18T15:03:48;9.90;99.90
52731;DHT22;38624;53.242;6.974;2023-02-18T15:06:34;9.90;99.90
52731;DHT22;38624;53.242;6.974;2023-02-18T15:09:22;10.00;99.90
52731;DHT22;38624;53.242;6.974;2023-02-18T15:12:02;10.00;99.90
52731;DHT22;38624;53.242;6.974;2023-02-18T15:14:37;10.00;99.90
52731;DHT22;38624;53.242;6.974;2023-02-18T15:17:07;9.90;99.90
52731;DHT22;38624;53.242;6.974;2023-02-18T15:19:46;9.90;99.90
52731;DHT22;38624;53.242;6.974;2023-02-18T15:22:18;9.90;99.90
52731;DHT22;38624;53.242;6.974;2023-02-18T15:24:46;9.90;99.90
52731;DHT22;38624;53.242;6.974;2023-02-18T15:27:17;9.90;99.90
52731;DHT22;38624;53.242;6.974;2023-02-18T15:29:43;9.90;99.90
52731;DHT22;38624;53.242;6.974;2023-02-18T15:32:20;10.00;99.90
52731;DHT22;38624;53.242;6.974;2023-02-18T15:34:51;10.00;99.90
52731;DHT22;38624;53.242;6.974;2023-02-18T15:37:17;9.90;99.90
52731;DHT22;38624;53.242;6.974;2023-02-18T15:39:44;9.90;99.90
52731;DHT22;38624;53.242;6.974;2023-02-18T15:42:27;9.80;99.90
52731;DHT22;38624;53.242;6.974;2023-02-18T15:45:20;9.80;99.90
52731;DHT22;38624;53.242;6.974;2023-02-18T15:47:53;9.80;99.90
52731;DHT22;38624;53.242;6.974;2023-02-18T15:52:46;9.80;99.90
52731;DHT22;38624;53.242;6.974;2023-02-18T15:55:53;9.60;99.90
52731;DHT22;38624;53.242;6.974;2023-02-18T16:01:22;9.50;99.90
52731;DHT22;38624;53.242;6.974;2023-02-18T16:03:49;9.50;99.90
52731;DHT22;38624;53.242;6.974;2023-02-18T16:09:10;9.40;99.90
52731;DHT22;38624;53.242;6.974;2023-02-18T16:12:01;9.30;99.90
52731;DHT22;38624;53.242;6.974;2023-02-18T16:14:46;9.30;99.90
52731;DHT22;38624;53.242;6.974;2023-02-18T16:19:51;9.30;99.90
52731;DHT22;38624;53.242;6.974;2023-02-18T16:27:36;9.20;99.90
52731;DHT22;38624;53.242;6.974;2023-02-18T16:30:14;9.10;99.90
52731;DHT22;38624;53.242;6.974;2023-02-18T16:32:41;9.10;99.90
52731;DHT22;38624;53.242;6.974;2023-02-18T16:35:07;9.00;99.90
52731;DHT22;38624;53.242;6.974;2023-02-18T16:37:33;9.10;99.90
52731;DHT22;38624;53.242;6.974;2023-02-18T16:42:47;9.00;99.90
52731;DHT22;38624;53.242;6.974;2023-02-18T16:45:12;9.00;99.90
52731;DHT22;38624;53.242;6.974;2023-02-18T16:47:39;8.90;99.90
52731;DHT22;38624;53.242;6.974;2023-02-18T16:50:05;8.80;99.90
52731;DHT22;38624;53.242;6.974;2023-02-18T16:52:38;8.80;99.90
52731;DHT22;38624;53.242;6.974;2023-02-18T16:55:25;8.80;99.90
52731;DHT22;38624;53.242;6.974;2023-02-18T16:57:51;8.70;99.90
52731;DHT22;38624;53.242;6.974;2023-02-18T17:00:18;8.70;99.90
52731;DHT22;38624;53.242;6.974;2023-02-18T17:02:47;8.60;99.90
52731;DHT22;38624;53.242;6.974;2023-02-18T17:05:19;8.60;99.90
52731;DHT22;38624;53.242;6.974;2023-02-18T17:07:45;8.60;99.90
52731;DHT22;38624;53.242;6.974;2023-02-18T17:10:12;8.60;99.90
52731;DHT22;38624;53.242;6.974;2023-02-18T17:12:38;8.50;99.90
52731;DHT22;38624;53.242;6.974;2023-02-18T17:15:29;8.50;99.90
52731;DHT22;38624;53.242;6.974;2023-02-18T17:17:56;8.50;99.90
52731;DHT22;38624;53.242;6.974;2023-02-18T17:20:27;8.50;99.90
52731;DHT22;38624;53.242;6.974;2023-02-18T17:22:55;8.50;99.90
52731;DHT22;38624;53.242;6.974;2023-02-18T17:25:34;8.50;99.90
52731;DHT22;38624;53.242;6.974;2023-02-18T17:28:01;8.50;99.90
52731;DHT22;38624;53.242;6.974;2023-02-18T17:30:29;8.50;99.90
52731;DHT22;38624;53.242;6.974;2023-02-18T17:32:55;8.50;99.90
52731;DHT22;38624;53.242;6.974;2023-02-18T17:35:22;8.50;99.90
52731;DHT22;38624;53.242;6.974;2023-02-18T17:37:48;8.40;99.90
52731;DHT22;38624;53.242;6.974;2023-02-18T17:40:32;8.50;99.90
52731;DHT22;38624;53.242;6.974;2023-02-18T17:42:58;8.40;99.90
52731;DHT22;38624;53.242;6.974;2023-02-18T17:47:58;8.40;99.90
52731;DHT22;38624;53.242;6.974;2023-02-18T17:50:25;8.40;99.90
52731;DHT22;38624;53.242;6.974;2023-02-18T17:52:51;8.40;99.90
52731;DHT22;38624;53.242;6.974;2023-02-18T17:55:27;8.40;99.90
52731;DHT22;38624;53.242;6.974;2023-02-18T17:57:53;8.40;99.90
52731;DHT22;38624;53.242;6.974;2023-02-18T18:00:30;8.30;99.90
52731;DHT22;38624;53.242;6.974;2023-02-18T18:02:56;8.30;99.90
52731;DHT22;38624;53.242;6.974;2023-02-18T18:05:27;8.30;99.90
52731;DHT22;38624;53.242;6.974;2023-02-18T18:07:54;8.20;99.90
52731;DHT22;38624;53.242;6.974;2023-02-18T18:10:22;8.30;99.90
52731;DHT22;38624;53.242;6.974;2023-02-18T18:12:49;8.20;99.90
52731;DHT22;38624;53.242;6.974;2023-02-18T18:18:03;8.20;99.90
52731;DHT22;38624;53.242;6.974;2023-02-18T18:20:30;8.20;99.90
52731;DHT22;38624;53.242;6.974;2023-02-18T18:22:58;7.20;99.90
52731;DHT22;38624;53.242;6.974;2023-02-18T18:25:30;8.40;99.90
52731;DHT22;38624;53.242;6.974;2023-02-18T18:27:57;8.40;99.90
52731;DHT22;38624;53.242;6.974;2023-02-18T18:30:28;8.20;99.90
52731;DHT22;38624;53.242;6.974;2023-02-18T18:32:54;8.20;99.90
52731;DHT22;38624;53.242;6.974;2023-02-18T18:35:30;8.20;99.90
52731;DHT22;38624;53.242;6.974;2023-02-18T18:37:57;8.20;99.90
52731;DHT22;38624;53.242;6.974;2023-02-18T18:40:25;8.20;99.90
52731;DHT22;38624;53.242;6.974;2023-02-18T18:42:53;8.20;99.90
52731;DHT22;38624;53.242;6.974;2023-02-18T18:45:31;8.30;99.90
52731;DHT22;38624;53.242;6.974;2023-02-18T18:47:57;8.30;99.90